Aérodrome :
LOGIN :

S'inscrire | Disclaimer

   EN    FR    IT 

 










Légende :    VFR   VFR Marginal   IFR   IFR Intensif   IFR Très Intensif
Visi : 
Plafond : 
>= 8 km
>= 3000ft
5 à 8 km
1000 à 3000 ft
1500m à 5 km
500 à 1000 ft
800 à 1500m
200 à 500 ft
< 800m
< 200 ft
Symboles :   Orages  Brouillard  Fortes neiges  Fortes précipitations  Vent > 20 kt
SIGMETs :   Divers  Orages  Givrage  Turbulence  Onde Orograph.  Cendres Volcan.







- Altitude de l'aérodrome : 203 ft
- Code IATA : XMJ
- Voir les cartes d'approche


LFBM - Mont-De-Marsan

DERNIER METAR :
  • 240330Z AUTO 25006KT 1800 BR VV/// 10/10 Q1029 TEMPO 0600 FG

METARs EXPIRÉS :
  • 240300Z AUTO 24006KT 1200 1100 R27/1400U BR VV/// 10/10 Q1029 TEMPO 0600 FG
  • 240230Z AUTO 24005KT 1300 1200 R27/1500D BR VV/// 10/10 Q1029 TEMPO 0600 FG
  • 240200Z AUTO 26006KT 0700 0650 R27/0800N FG VV/// 10/10 Q1030 TEMPO 3000 BR OVC003
  • 240130Z AUTO 25007KT 220V280 1500 1300 R27/1900U BR OVC002 10/09 Q1030 TEMPO 0600 FG VV///
  • 240100Z AUTO 25008KT 220V280 3900 BR OVC004 10/09 Q1030 NOSIG

TAF TAF LFBM
Valide du 24 à 03h jusqu'au 25 à 03h UTC


240200Z 2403/2503 23004KT 2000 BR OVC002
TEMPO 2403/2408 0600 FG VV///
BECMG 2411/2413 9999 NSW NSC
Pas de NOTAMs connus pour ce terrain.



MET'MAP, la Météo Aéronautique d'un coup d'oeil ! - Copyright ORBIFLY Décembre 2007 - Disclaimer

ORBIFLY MET'MAP TEAM :

Programmation & Développement : Alexandra Zaïnal
Conception & Développement : Baudouin d'Aumeries
Co-Programmation & Développement : Marc-Olivier Méhu
Soutien technique & logistique : Manuel Goepfert

Contact : metmap@orbifly.com




SOURCES & CREDITS :

   NOAA